Abnaki, Vermont
Current Conditions -  °F | °C
As of 2:35 AM on Saturday 29 Nov 2014 (Local Time) from KFSO Reporting Station
Light Snow Light Snow  
Wind Chill: -8°   Ceiling: 4800
Heat Index: -8°   Visibility: 7mi
Dew Point: -10°   Wind: 0mph
Humidity: 87%   Direction: NA
Pressure: 30.23"   Gusts: NA
Location:  44.841°N, 73.2779°W
Report Text: KFSO 290735Z AUTO 00000KT 7SM -SN SCT025 SCT038 OVC048 M08/M10 A3023 RMK AO2 T10831101
Loading
Personal Weather Stations






























Interactive Weather Map New forecast layout! Learn more

10-Day Weather Forecast

Advertisements
Track Severe Weather on mobile